< < Back
Terminal Aerodrome Forecast


Current Version              Previous Versions:   1  2  3  4  5  6  7  8  9  

Terminal Aerodrome Forecast

139
FTUS42 KGSP 162300
TAFGSP
TAF
KGSP 162320Z 1700/1724 07007KT P6SM SKC
     FM171300 04012KT P6SM SCT250
      TEMPO 1713/1716 05012G18KT
     FM172000 08010KT P6SM SCT250=



Latest METAR

670
SAUS70 KWBC 170400 RRC
MTRGSP
METAR KGSP 170353Z AUTO 01003KT 10SM CLR 07/M01 A3038 RMK AO2 SLP286
T00721011


USA.gov is the U.S. government's official web portal to all federal, state and local government web resources and services.